createdAt,value
2019-03-30T00:01:16.537Z,12.45
2019-03-30T00:03:43.751Z,11.63
2019-03-30T00:06:10.963Z,11.43
2019-03-30T00:08:38.634Z,11.68
2019-03-30T00:11:06.159Z,10.93
2019-03-30T00:13:33.377Z,10.55
2019-03-30T00:16:02.226Z,10.13
2019-03-30T00:18:29.519Z,11.10
2019-03-30T00:20:59.540Z,9.88
2019-03-30T00:23:26.806Z,9.88
2019-03-30T00:25:54.020Z,10.03
2019-03-30T00:28:21.673Z,10.05
2019-03-30T00:30:48.929Z,10.72
2019-03-30T00:33:16.240Z,12.40
2019-03-30T00:35:43.754Z,11.68
2019-03-30T00:38:13.814Z,10.28
2019-03-30T00:40:41.147Z,11.13
2019-03-30T00:43:09.761Z,10.40
2019-03-30T00:45:37.021Z,10.80
2019-03-30T00:48:04.215Z,10.55
2019-03-30T00:50:31.643Z,10.38
2019-03-30T00:52:58.903Z,10.18
2019-03-30T00:55:26.111Z,10.15
2019-03-30T00:57:53.352Z,9.43
2019-03-30T01:00:20.647Z,9.43
2019-03-30T01:02:47.851Z,8.83
2019-03-30T01:05:18.439Z,10.70
2019-03-30T01:07:45.739Z,9.18
2019-03-30T01:10:13.204Z,9.90
2019-03-30T01:12:40.519Z,10.38
2019-03-30T01:15:08.431Z,10.48
2019-03-30T01:17:35.631Z,10.05
2019-03-30T01:20:05.647Z,10.10
2019-03-30T01:22:33.297Z,10.10
2019-03-30T01:25:00.816Z,10.82
2019-03-30T01:27:28.091Z,10.80
2019-03-30T01:29:55.776Z,9.58
2019-03-30T01:32:23.056Z,9.85
2019-03-30T01:34:50.274Z,11.10
2019-03-30T01:37:17.611Z,10.35
2019-03-30T01:39:44.803Z,10.50
2019-03-30T01:42:12.002Z,11.25
2019-03-30T01:44:40.785Z,12.28
2019-03-30T01:47:09.807Z,11.33
2019-03-30T01:49:37.958Z,11.35
2019-03-30T01:52:05.214Z,12.50
2019-03-30T01:54:32.849Z,12.93
2019-03-30T01:57:01.080Z,13.08
2019-03-30T01:59:28.411Z,11.28
2019-03-30T02:01:55.607Z,13.50
2019-03-30T02:04:22.847Z,12.30
2019-03-30T02:06:50.101Z,12.68
2019-03-30T02:09:17.321Z,12.82
2019-03-30T02:11:44.758Z,13.53
2019-03-30T02:14:13.180Z,12.75
2019-03-30T02:16:41.359Z,12.13
2019-03-30T02:19:08.571Z,11.88
2019-03-30T02:21:35.891Z,10.82
2019-03-30T02:24:03.142Z,11.22
2019-03-30T02:26:31.740Z,10.68
2019-03-30T02:28:58.975Z,10.93
2019-03-30T02:31:26.184Z,10.72
2019-03-30T02:33:53.379Z,11.33
2019-03-30T02:36:20.655Z,10.55
2019-03-30T02:38:48.936Z,11.00
2019-03-30T02:41:16.152Z,10.72
2019-03-30T02:43:43.415Z,10.53
2019-03-30T02:46:10.694Z,10.43
2019-03-30T02:48:40.010Z,10.60
2019-03-30T02:51:07.275Z,9.63
2019-03-30T02:53:34.483Z,10.53
2019-03-30T02:56:01.698Z,10.15
2019-03-30T02:58:29.234Z,10.78
2019-03-30T03:00:56.450Z,10.03
2019-03-30T03:03:23.654Z,10.88
2019-03-30T03:05:50.919Z,10.28
2019-03-30T03:08:18.115Z,9.93
2019-03-30T03:10:45.337Z,9.80
2019-03-30T03:13:13.093Z,10.68
2019-03-30T03:15:40.406Z,9.70
2019-03-30T03:18:07.613Z,12.80
2019-03-30T03:20:35.006Z,10.93
2019-03-30T03:23:02.200Z,11.12
2019-03-30T03:25:29.420Z,11.25
2019-03-30T03:27:57.111Z,10.28
2019-03-30T03:30:24.425Z,9.88
2019-03-30T03:32:51.648Z,10.43
2019-03-30T03:35:18.905Z,9.88
2019-03-30T03:37:46.515Z,10.80
2019-03-30T03:40:14.143Z,10.65
2019-03-30T03:42:41.439Z,10.80
2019-03-30T03:45:08.668Z,10.72
2019-03-30T03:47:35.901Z,11.00
2019-03-30T03:50:03.672Z,11.80
2019-03-30T03:52:30.906Z,11.38
2019-03-30T03:54:58.214Z,11.28
2019-03-30T03:57:25.784Z,11.55
2019-03-30T03:59:53.055Z,11.93
2019-03-30T04:02:21.300Z,10.85
2019-03-30T04:04:48.782Z,11.80
2019-03-30T04:07:16.189Z,11.48
2019-03-30T04:09:44.139Z,12.30
2019-03-30T04:12:11.404Z,12.78
2019-03-30T04:14:40.642Z,12.03
2019-03-30T04:17:07.960Z,11.55
2019-03-30T04:19:35.246Z,12.07
2019-03-30T04:22:02.504Z,12.95
2019-03-30T04:24:29.709Z,12.88
2019-03-30T04:26:57.273Z,12.45
2019-03-30T04:29:27.326Z,13.08
2019-03-30T04:31:54.525Z,18.17
2019-03-30T04:34:22.051Z,17.82
2019-03-30T04:36:51.076Z,16.87
2019-03-30T04:39:18.283Z,14.20
2019-03-30T04:41:45.548Z,14.55
2019-03-30T04:44:12.783Z,14.05
2019-03-30T04:46:39.997Z,13.83
2019-03-30T04:49:07.243Z,13.03
2019-03-30T04:51:34.484Z,17.55
2019-03-30T04:54:01.687Z,27.65
2019-03-30T04:56:28.960Z,27.85
2019-03-30T04:58:56.165Z,29.67
2019-03-30T05:01:23.380Z,30.08
2019-03-30T05:03:50.718Z,30.20
2019-03-30T05:06:18.035Z,29.23
2019-03-30T05:08:45.255Z,30.72
2019-03-30T05:11:12.524Z,28.92
2019-03-30T05:13:40.226Z,25.23
2019-03-30T05:16:08.020Z,20.68
2019-03-30T05:18:35.280Z,20.30
2019-03-30T05:21:02.508Z,19.77
2019-03-30T05:23:29.747Z,16.87
2019-03-30T05:25:57.030Z,19.45
2019-03-30T05:28:24.235Z,18.95
2019-03-30T05:30:51.558Z,19.40
2019-03-30T05:33:18.840Z,17.85
2019-03-30T05:35:52.861Z,16.20
2019-03-30T05:38:20.222Z,16.02
2019-03-30T05:40:47.912Z,21.35
2019-03-30T05:43:15.601Z,20.10
2019-03-30T05:45:42.876Z,20.45
2019-03-30T05:48:10.252Z,18.20
2019-03-30T05:50:37.488Z,19.02
2019-03-30T05:53:05.131Z,18.32
2019-03-30T05:55:32.359Z,17.42
2019-03-30T05:57:59.566Z,17.20
2019-03-30T06:00:26.942Z,15.28
2019-03-30T06:02:54.424Z,15.00
2019-03-30T06:05:21.649Z,15.70
2019-03-30T06:07:48.898Z,14.85
2019-03-30T06:10:16.564Z,16.70
2019-03-30T06:12:43.810Z,15.05
2019-03-30T06:15:11.590Z,15.78
2019-03-30T06:17:39.359Z,16.45
2019-03-30T06:20:06.618Z,16.15
2019-03-30T06:22:40.140Z,16.57
2019-03-30T06:25:03.059Z,15.53
2019-03-30T06:27:30.321Z,15.45
2019-03-30T06:30:14.151Z,14.95
2019-03-30T06:32:42.009Z,15.43
2019-03-30T06:35:09.264Z,16.65
2019-03-30T06:37:36.689Z,16.45
2019-03-30T06:40:05.278Z,15.58
2019-03-30T06:42:32.724Z,15.18
2019-03-30T06:44:59.987Z,14.63
2019-03-30T06:47:27.528Z,15.03
2019-03-30T06:49:55.084Z,14.65
2019-03-30T06:52:23.492Z,16.35
2019-03-30T06:54:50.720Z,15.93
2019-03-30T06:57:19.631Z,16.57
2019-03-30T06:59:47.295Z,16.12
2019-03-30T07:02:16.027Z,16.90
2019-03-30T07:04:43.429Z,16.10
2019-03-30T07:07:10.749Z,16.35
2019-03-30T07:09:39.498Z,18.17
2019-03-30T07:12:12.889Z,19.17
2019-03-30T07:14:39.330Z,20.95
2019-03-30T07:17:07.062Z,23.12
2019-03-30T07:19:34.856Z,19.75
2019-03-30T07:22:02.632Z,22.02
2019-03-30T07:24:29.928Z,22.20
2019-03-30T07:26:57.483Z,21.70
2019-03-30T07:29:26.072Z,20.90
2019-03-30T07:31:55.158Z,21.42
2019-03-30T07:34:22.483Z,22.55
2019-03-30T07:36:49.843Z,21.87
2019-03-30T07:39:17.079Z,21.77
2019-03-30T07:41:44.323Z,21.12
2019-03-30T07:44:11.711Z,22.22
2019-03-30T07:46:38.990Z,23.98
2019-03-30T07:49:06.618Z,25.48
2019-03-30T07:51:33.904Z,23.65
2019-03-30T07:54:01.127Z,37.67
2019-03-30T07:56:28.356Z,23.57
2019-03-30T07:58:56.025Z,22.50
2019-03-30T08:01:25.272Z,19.20
2019-03-30T08:03:52.418Z,20.32
2019-03-30T08:06:25.638Z,20.88
2019-03-30T08:09:18.923Z,22.05
2019-03-30T08:11:46.273Z,23.27
2019-03-30T08:14:13.547Z,22.40
2019-03-30T08:19:50.402Z,21.40
2019-03-30T08:22:18.327Z,19.15
2019-03-30T08:24:45.734Z,18.32
2019-03-30T08:27:14.185Z,21.97
2019-03-30T08:29:41.564Z,19.27
2019-03-30T08:32:08.851Z,20.32
2019-03-30T08:34:36.185Z,18.75
2019-03-30T08:37:03.798Z,19.52
2019-03-30T08:39:31.072Z,18.57
2019-03-30T08:41:59.202Z,19.92
2019-03-30T08:44:27.062Z,19.55
2019-03-30T08:46:57.973Z,21.48
2019-03-30T08:49:24.939Z,19.30
2019-03-30T08:51:52.283Z,19.12
2019-03-30T08:54:19.642Z,19.27
2019-03-30T08:56:47.035Z,23.42
2019-03-30T08:59:14.347Z,22.60
2019-03-30T09:01:43.904Z,22.20
2019-03-30T09:04:11.784Z,18.60
2019-03-30T09:06:39.174Z,18.70
2019-03-30T09:09:06.433Z,19.75
2019-03-30T09:11:37.454Z,16.90
2019-03-30T09:16:32.336Z,18.52
2019-03-30T09:18:59.834Z,18.60
2019-03-30T09:21:27.632Z,18.57
2019-03-30T09:24:08.737Z,19.25
2019-03-30T09:26:28.692Z,18.95
2019-03-30T09:28:56.132Z,18.00
2019-03-30T09:31:24.255Z,17.57
2019-03-30T09:33:53.554Z,17.80
2019-03-30T09:38:49.662Z,17.75
2019-03-30T09:41:17.273Z,17.85
2019-03-30T09:43:44.616Z,16.15
2019-03-30T09:46:12.929Z,16.70
2019-03-30T09:48:40.306Z,16.17
2019-03-30T09:51:08.113Z,16.52
2019-03-30T09:53:35.343Z,16.30
2019-03-30T09:56:02.621Z,15.60
2019-03-30T09:58:29.832Z,15.70
2019-03-30T10:00:57.055Z,15.43
2019-03-30T10:03:24.536Z,17.80
2019-03-30T10:05:51.792Z,16.65
2019-03-30T10:08:19.027Z,16.42
2019-03-30T10:10:46.647Z,16.12
2019-03-30T10:13:13.888Z,16.57
2019-03-30T10:15:41.293Z,15.48
2019-03-30T10:18:08.547Z,14.68
2019-03-30T10:20:35.813Z,14.15
2019-03-30T10:23:04.841Z,15.00
2019-03-30T10:25:32.143Z,14.30
2019-03-30T10:27:59.886Z,14.15
2019-03-30T10:30:27.547Z,13.50
2019-03-30T10:32:54.859Z,13.25
2019-03-30T10:35:22.325Z,12.90
2019-03-30T10:37:50.575Z,14.15
2019-03-30T10:40:20.709Z,12.55
2019-03-30T10:42:47.372Z,13.85
2019-03-30T10:45:15.003Z,13.98
2019-03-30T10:47:42.709Z,12.50
2019-03-30T10:50:11.900Z,13.70
2019-03-30T10:52:39.177Z,13.93
2019-03-30T10:55:06.581Z,14.83
2019-03-30T10:57:33.919Z,15.98
2019-03-30T11:00:01.266Z,15.30
2019-03-30T11:02:28.725Z,15.30
2019-03-30T11:04:56.062Z,15.83
2019-03-30T11:07:23.291Z,16.10
2019-03-30T11:09:50.606Z,17.12
2019-03-30T11:12:24.765Z,15.68
2019-03-30T11:14:52.130Z,16.67
2019-03-30T11:17:32.292Z,16.75
2019-03-30T11:20:03.351Z,16.40
2019-03-30T11:22:35.720Z,16.12
2019-03-30T11:25:09.232Z,16.02
2019-03-30T11:27:40.216Z,16.57
2019-03-30T11:30:13.339Z,15.88
2019-03-30T11:32:40.753Z,16.20
2019-03-30T11:35:09.294Z,18.05
2019-03-30T11:37:40.210Z,16.95
2019-03-30T11:40:22.951Z,15.08
2019-03-30T11:42:53.657Z,15.83
2019-03-30T11:45:22.126Z,16.12
2019-03-30T11:47:53.712Z,15.23
2019-03-30T11:50:23.161Z,16.90
2019-03-30T11:52:51.066Z,18.42
2019-03-30T11:55:21.985Z,19.48
2019-03-30T11:57:55.508Z,17.48
2019-03-30T12:00:24.248Z,16.80
2019-03-30T12:02:55.685Z,16.40
2019-03-30T12:05:31.916Z,17.67
2019-03-30T12:08:00.792Z,16.70
2019-03-30T12:10:30.267Z,15.70
2019-03-30T12:12:59.161Z,16.05
2019-03-30T12:15:27.149Z,15.95
2019-03-30T12:17:55.012Z,16.82
2019-03-30T12:20:31.726Z,18.02
2019-03-30T12:23:05.214Z,16.67
2019-03-30T12:31:16.983Z,19.62
2019-03-30T12:33:45.392Z,18.67
2019-03-30T12:36:13.865Z,18.42
2019-03-30T12:38:42.340Z,18.12
2019-03-30T12:41:09.717Z,20.20
2019-03-30T12:43:39.881Z,19.12
2019-03-30T12:46:07.324Z,23.07
2019-03-30T12:48:35.090Z,20.77
2019-03-30T12:51:03.199Z,20.90
2019-03-30T12:53:33.261Z,19.95
2019-03-30T12:56:02.778Z,21.37
2019-03-30T12:58:31.453Z,20.72
2019-03-30T13:01:02.476Z,22.30
2019-03-30T13:03:32.752Z,22.35
2019-03-30T13:06:00.240Z,20.68
2019-03-30T13:08:27.531Z,20.32
2019-03-30T13:10:57.375Z,22.82
2019-03-30T13:13:28.049Z,22.27
2019-03-30T13:15:56.448Z,21.97
2019-03-30T13:18:28.401Z,21.70
2019-03-30T13:20:55.717Z,20.45
2019-03-30T13:23:22.993Z,20.30
2019-03-30T13:26:02.765Z,25.00
2019-03-30T13:28:19.644Z,23.18
2019-03-30T13:30:46.922Z,21.40
2019-03-30T13:33:15.945Z,22.22
2019-03-30T13:35:43.333Z,22.73
2019-03-30T13:38:10.604Z,22.87
2019-03-30T13:40:41.143Z,22.62
2019-03-30T13:43:08.846Z,22.52
2019-03-30T13:45:36.128Z,22.50
2019-03-30T13:48:04.687Z,22.32
2019-03-30T13:50:32.015Z,24.60
2019-03-30T13:52:59.281Z,22.02
2019-03-30T13:55:27.028Z,25.17
2019-03-30T13:57:54.477Z,25.60
2019-03-30T14:00:21.741Z,29.60
2019-03-30T14:02:49.055Z,24.60
2019-03-30T14:05:16.527Z,23.85
2019-03-30T14:07:43.849Z,24.37
2019-03-30T14:10:11.653Z,23.92
2019-03-30T14:12:38.942Z,24.67
2019-03-30T14:15:09.181Z,22.27
2019-03-30T14:17:35.371Z,22.90
2019-03-30T14:20:03.658Z,22.13
2019-03-30T14:22:30.979Z,22.07
2019-03-30T14:24:58.217Z,22.77
2019-03-30T14:27:25.511Z,21.65
2019-03-30T14:29:54.385Z,21.62
2019-03-30T14:32:21.817Z,22.73
2019-03-30T14:34:49.566Z,23.55
2019-03-30T14:37:16.981Z,23.35
2019-03-30T14:39:44.264Z,22.90
2019-03-30T14:42:11.596Z,23.95
2019-03-30T14:44:38.827Z,24.18
2019-03-30T14:47:06.087Z,23.60
2019-03-30T14:49:36.369Z,22.62
2019-03-30T14:52:03.765Z,22.30
2019-03-30T14:54:31.000Z,22.58
2019-03-30T14:56:58.264Z,22.05
2019-03-30T14:59:25.904Z,23.47
2019-03-30T15:01:53.116Z,22.20
2019-03-30T15:04:20.448Z,21.80
2019-03-30T15:06:47.694Z,23.02
2019-03-30T15:09:14.911Z,23.02
2019-03-30T15:11:42.227Z,23.05
2019-03-30T15:14:09.920Z,24.10
2019-03-30T15:16:39.362Z,22.60
2019-03-30T15:19:06.739Z,22.32
2019-03-30T15:21:34.086Z,23.10
2019-03-30T15:24:01.979Z,22.75
2019-03-30T15:26:29.771Z,23.60
2019-03-30T15:28:57.091Z,25.25
2019-03-30T15:31:25.307Z,30.55
2019-03-30T15:33:53.477Z,26.27
2019-03-30T15:36:21.761Z,23.80
2019-03-30T15:38:48.986Z,22.48
2019-03-30T15:41:16.437Z,22.90
2019-03-30T15:43:44.967Z,23.95
2019-03-30T15:46:14.281Z,22.32
2019-03-30T15:48:41.447Z,24.25
2019-03-30T15:51:09.808Z,23.90
2019-03-30T15:53:37.517Z,23.67
2019-03-30T15:56:05.000Z,23.67
2019-03-30T15:58:32.274Z,26.87
2019-03-30T16:00:59.646Z,27.13
2019-03-30T16:03:26.955Z,25.27
2019-03-30T16:05:54.247Z,25.57
2019-03-30T16:08:21.471Z,25.72
2019-03-30T16:10:52.351Z,24.52
2019-03-30T16:13:19.017Z,27.42
2019-03-30T16:15:46.416Z,28.87
2019-03-30T16:18:13.684Z,26.97
2019-03-30T16:20:42.412Z,25.77
2019-03-30T16:23:11.547Z,27.32
2019-03-30T16:25:39.120Z,27.98
2019-03-30T16:28:06.533Z,34.08
2019-03-30T16:30:33.903Z,32.67
2019-03-30T16:33:01.503Z,31.10
2019-03-30T16:35:41.997Z,28.47
2019-03-30T16:38:09.713Z,24.02
2019-03-30T16:40:39.128Z,30.25
2019-03-30T16:43:08.712Z,33.30
2019-03-30T16:45:36.401Z,28.75
2019-03-30T16:48:03.807Z,28.02
2019-03-30T16:50:31.176Z,29.55
2019-03-30T16:52:58.507Z,30.27
2019-03-30T16:55:25.833Z,29.40
2019-03-30T16:57:54.138Z,29.80
2019-03-30T17:00:21.463Z,30.10
2019-03-30T17:02:48.734Z,30.02
2019-03-30T17:05:15.998Z,32.00
2019-03-30T17:07:44.485Z,37.58
2019-03-30T17:10:12.771Z,39.03
2019-03-30T17:12:40.085Z,40.25
2019-03-30T17:15:08.436Z,46.65
2019-03-30T17:17:35.752Z,48.15
2019-03-30T17:20:06.798Z,39.10
2019-03-30T17:22:34.203Z,40.52
2019-03-30T17:25:01.440Z,34.83
2019-03-30T17:27:31.211Z,35.40
2019-03-30T17:29:59.826Z,35.05
2019-03-30T17:32:35.051Z,34.85
2019-03-30T17:35:02.771Z,36.20
2019-03-30T17:37:30.249Z,37.00
2019-03-30T17:39:57.799Z,36.25
2019-03-30T17:42:25.291Z,37.55
2019-03-30T17:44:52.648Z,38.78
2019-03-30T17:47:24.379Z,38.70
2019-03-30T17:49:52.245Z,39.48
2019-03-30T17:52:20.753Z,35.90
2019-03-30T17:54:51.975Z,35.35
2019-03-30T17:57:20.471Z,35.95
2019-03-30T17:59:47.916Z,37.35
2019-03-30T18:02:15.709Z,36.28
2019-03-30T18:04:43.342Z,39.38
2019-03-30T18:07:13.504Z,42.93
2019-03-30T18:09:39.809Z,43.55
2019-03-30T18:12:07.555Z,43.98
2019-03-30T18:14:34.968Z,38.95
2019-03-30T18:17:02.314Z,38.15
2019-03-30T18:19:31.568Z,42.55
2019-03-30T18:21:58.844Z,37.78
2019-03-30T18:24:26.404Z,36.77
2019-03-30T18:26:53.673Z,34.67
2019-03-30T18:29:20.968Z,37.95
2019-03-30T18:31:48.308Z,39.70
2019-03-30T18:34:15.611Z,41.50
2019-03-30T18:36:42.978Z,38.98
2019-03-30T18:39:10.393Z,39.50
2019-03-30T18:41:38.153Z,40.17
2019-03-30T18:44:05.397Z,42.73
2019-03-30T18:46:32.708Z,66.07
2019-03-30T18:48:59.953Z,112.45
2019-03-30T18:51:27.204Z,75.37
2019-03-30T18:53:54.505Z,62.70
2019-03-30T18:56:21.971Z,71.80
2019-03-30T18:58:49.215Z,119.80
2019-03-30T19:01:16.506Z,181.95
2019-03-30T19:03:43.788Z,244.05
2019-03-30T19:06:11.042Z,161.22
2019-03-30T19:08:38.343Z,165.25
2019-03-30T19:11:07.381Z,125.55
2019-03-30T19:13:34.662Z,96.35
2019-03-30T19:16:02.249Z,81.22
2019-03-30T19:18:29.459Z,49.23
2019-03-30T19:20:56.717Z,47.17
2019-03-30T19:23:23.997Z,44.15
2019-03-30T19:25:53.910Z,47.35
2019-03-30T19:28:21.461Z,49.53
2019-03-30T19:30:48.769Z,44.75
2019-03-30T19:33:16.393Z,46.33
2019-03-30T19:35:44.478Z,42.53
2019-03-30T19:38:12.493Z,42.58
2019-03-30T19:40:40.053Z,38.25
2019-03-30T19:43:07.949Z,37.10
2019-03-30T19:45:40.162Z,70.78
2019-03-30T19:48:09.192Z,47.08
2019-03-30T19:50:37.102Z,38.33
2019-03-30T19:53:04.519Z,59.90
2019-03-30T19:55:31.779Z,41.58
2019-03-30T19:57:59.288Z,39.40
2019-03-30T20:00:26.617Z,42.17
2019-03-30T20:02:55.056Z,39.48
2019-03-30T20:05:22.542Z,35.98
2019-03-30T20:07:49.836Z,38.42
2019-03-30T20:10:17.110Z,37.73
2019-03-30T20:12:45.549Z,36.77
2019-03-30T20:15:12.815Z,37.17
2019-03-30T20:17:40.111Z,38.50
2019-03-30T20:20:07.472Z,38.23
2019-03-30T20:22:34.747Z,38.20
2019-03-30T20:25:02.224Z,40.30
2019-03-30T20:27:29.507Z,35.25
2019-03-30T20:29:56.935Z,41.25
2019-03-30T20:32:26.895Z,38.13
2019-03-30T20:34:54.223Z,39.98
2019-03-30T20:37:21.418Z,39.08
2019-03-30T20:39:48.658Z,40.70
2019-03-30T20:42:16.155Z,41.50
2019-03-30T20:44:44.501Z,41.63
2019-03-30T20:47:11.836Z,42.23
2019-03-30T20:49:39.361Z,39.20
2019-03-30T20:52:06.838Z,43.02
2019-03-30T20:54:34.098Z,42.23
2019-03-30T20:57:02.605Z,43.30
2019-03-30T20:59:39.980Z,42.03
2019-03-30T21:01:59.521Z,52.67
2019-03-30T21:04:26.992Z,49.08
2019-03-30T21:09:46.761Z,92.05
2019-03-30T21:12:14.352Z,75.15
2019-03-30T21:14:43.411Z,43.83
2019-03-30T21:17:10.872Z,44.73
2019-03-30T21:19:38.292Z,42.62
2019-03-30T21:22:05.700Z,60.78
2019-03-30T21:24:34.164Z,54.33
2019-03-30T21:27:03.776Z,100.27
2019-03-30T21:29:32.819Z,106.27
2019-03-30T21:32:00.400Z,73.62
2019-03-30T21:34:28.416Z,91.72
2019-03-30T21:36:56.044Z,68.75
2019-03-30T21:39:23.325Z,120.10
2019-03-30T21:41:54.203Z,89.92
2019-03-30T21:44:23.634Z,103.22
2019-03-30T21:46:52.310Z,83.17
2019-03-30T21:49:21.468Z,203.27
2019-03-30T21:51:49.310Z,121.90
2019-03-30T21:54:17.212Z,87.85
2019-03-30T21:56:45.025Z,62.33
2019-03-30T21:59:12.459Z,75.42
2019-03-30T22:01:40.621Z,56.13
2019-03-30T22:04:08.002Z,49.03
2019-03-30T22:06:35.393Z,50.85
2019-03-30T22:09:04.925Z,54.35
2019-03-30T22:11:37.068Z,61.85
2019-03-30T22:14:06.615Z,58.33
2019-03-30T22:16:33.991Z,60.28
2019-03-30T22:19:01.332Z,51.20
2019-03-30T22:21:29.442Z,55.17
2019-03-30T22:23:57.007Z,52.55
2019-03-30T22:26:27.252Z,47.17
2019-03-30T22:28:54.462Z,46.80
2019-03-30T22:31:21.712Z,47.27
2019-03-30T22:33:49.188Z,50.95
2019-03-30T22:36:16.783Z,48.70
2019-03-30T22:38:44.551Z,53.28
2019-03-30T22:41:12.028Z,54.18
2019-03-30T22:43:39.635Z,54.00
2019-03-30T22:46:07.727Z,54.25
2019-03-30T22:48:35.612Z,56.80
2019-03-30T22:51:02.977Z,56.77
2019-03-30T22:53:38.952Z,55.17
2019-03-30T22:56:02.280Z,54.98
2019-03-30T22:58:29.514Z,55.73
2019-03-30T23:00:58.740Z,61.70
2019-03-30T23:03:26.314Z,55.78
2019-03-30T23:11:59.722Z,53.92
2019-03-30T23:14:30.363Z,55.85
2019-03-30T23:16:58.159Z,49.53
2019-03-30T23:19:30.067Z,51.77
2019-03-30T23:21:57.398Z,51.28
2019-03-30T23:24:24.735Z,50.15
2019-03-30T23:26:55.358Z,47.83
2019-03-30T23:29:22.716Z,49.63
2019-03-30T23:31:50.271Z,48.35
2019-03-30T23:34:19.129Z,51.60
2019-03-30T23:36:48.978Z,50.30
2019-03-30T23:39:17.476Z,50.58
2019-03-30T23:41:44.839Z,50.45
2019-03-30T23:44:13.600Z,49.95
2019-03-30T23:46:41.006Z,47.45
2019-03-30T23:49:09.237Z,48.75
2019-03-30T23:51:36.566Z,51.20
2019-03-30T23:54:09.396Z,50.12
2019-03-30T23:56:38.573Z,48.90
2019-03-30T23:59:06.024Z,50.25
